Terminal Aerodrome Forecast
Issued by NWS Blacksburg, VA

Current Version | Previous Version | Text Only | Print | Product List | Glossary Off
Versions: 1 2 3 4 5 6 7 8 9 10 11 12 13 14 15 16 17 18 19 20 21 22 23 24 25 26 27 28 29 30 31 32 33 34 35 36 37 38 39 40 41 42 43 44 45 46

824
FTUS41 KRNK 211415 AAB
TAFBLF
TAF AMD
KBLF 211415Z 2114/2212 23007KT P6SM BKN013 OVC019
     FM211600 27011KT P6SM VCTS OVC035CB
     FM211800 27010KT P6SM SHRA VCTS SCT020 OVC035CB
     FM211900 27010KT 5SM SHRA VCTS OVC035CB
     FM220100 VRB03KT 5SM SHRA BR OVC030=

USA.gov is the U.S. government's official web portal to all federal, state and local government web resources and services.